sensor_id;sensor_type;location;lat;lon;timestamp;pressure;altitude;pressure_sealevel;temperature;humidity
69535;BME280;56754;51.568;5.048;2023-07-22T00:01:25;101357.94;;;21.59;55.59
69535;BME280;56754;51.568;5.048;2023-07-22T00:03:50;101354.44;;;21.58;55.45
69535;BME280;56754;51.568;5.048;2023-07-22T00:06:16;101359.47;;;21.56;55.58
69535;BME280;56754;51.568;5.048;2023-07-22T00:08:41;101374.22;;;21.55;55.83
69535;BME280;56754;51.568;5.048;2023-07-22T00:11:07;101368.00;;;21.55;55.41
69535;BME280;56754;51.568;5.048;2023-07-22T00:13:33;101359.41;;;21.53;55.76
69535;BME280;56754;51.568;5.048;2023-07-22T00:15:59;101367.19;;;21.51;55.81
69535;BME280;56754;51.568;5.048;2023-07-22T00:18:25;101360.16;;;21.50;55.71
69535;BME280;56754;51.568;5.048;2023-07-22T00:20:51;101358.59;;;21.49;55.92
69535;BME280;56754;51.568;5.048;2023-07-22T00:23:16;101352.38;;;21.48;56.03
69535;BME280;56754;51.568;5.048;2023-07-22T00:25:42;101353.53;;;21.47;55.85
69535;BME280;56754;51.568;5.048;2023-07-22T00:28:07;101350.41;;;21.45;55.53
69535;BME280;56754;51.568;5.048;2023-07-22T00:30:32;101343.38;;;21.44;55.80
69535;BME280;56754;51.568;5.048;2023-07-22T00:32:58;101341.81;;;21.43;55.89
69535;BME280;56754;51.568;5.048;2023-07-22T00:35:23;101348.44;;;21.42;55.91
69535;BME280;56754;51.568;5.048;2023-07-22T00:37:48;101346.84;;;21.41;55.94
69535;BME280;56754;51.568;5.048;2023-07-22T00:40:15;101352.28;;;21.41;56.25
69535;BME280;56754;51.568;5.048;2023-07-22T00:42:40;101349.16;;;21.39;56.12
69535;BME280;56754;51.568;5.048;2023-07-22T00:45:06;101348.41;;;21.39;56.32
69535;BME280;56754;51.568;5.048;2023-07-22T00:47:33;101352.25;;;21.38;56.52
69535;BME280;56754;51.568;5.048;2023-07-22T00:50:00;101352.63;;;21.36;56.57
69535;BME280;56754;51.568;5.048;2023-07-22T00:52:26;101342.09;;;21.34;56.40
69535;BME280;56754;51.568;5.048;2023-07-22T00:54:52;101340.53;;;21.33;56.34
69535;BME280;56754;51.568;5.048;2023-07-22T00:57:17;101338.16;;;21.32;56.45
69535;BME280;56754;51.568;5.048;2023-07-22T00:59:44;101337.38;;;21.31;56.63
69535;BME280;56754;51.568;5.048;2023-07-22T01:02:09;101335.81;;;21.30;56.49
69535;BME280;56754;51.568;5.048;2023-07-22T01:04:35;101328.03;;;21.29;56.45
69535;BME280;56754;51.568;5.048;2023-07-22T01:07:01;101338.13;;;21.28;56.64
69535;BME280;56754;51.568;5.048;2023-07-22T01:09:34;101335.78;;;21.27;56.45
69535;BME280;56754;51.568;5.048;2023-07-22T01:11:59;101338.09;;;21.25;56.75
69535;BME280;56754;51.568;5.048;2023-07-22T01:14:24;101331.09;;;21.24;56.79
69535;BME280;56754;51.568;5.048;2023-07-22T01:16:50;101334.16;;;21.22;56.67
69535;BME280;56754;51.568;5.048;2023-07-22T01:19:17;101334.53;;;21.21;57.10
69535;BME280;56754;51.568;5.048;2023-07-22T01:21:43;101335.69;;;21.20;56.78
69535;BME280;56754;51.568;5.048;2023-07-22T01:24:09;101320.53;;;21.19;57.02
69535;BME280;56754;51.568;5.048;2023-07-22T01:26:35;101326.72;;;21.16;57.13
69535;BME280;56754;51.568;5.048;2023-07-22T01:29:04;101328.66;;;21.15;57.17
69535;BME280;56754;51.568;5.048;2023-07-22T01:31:30;101320.84;;;21.13;57.25
69535;BME280;56754;51.568;5.048;2023-07-22T01:33:55;101323.94;;;21.12;57.14
69535;BME280;56754;51.568;5.048;2023-07-22T01:36:20;101315.38;;;21.10;57.20
69535;BME280;56754;51.568;5.048;2023-07-22T01:38:46;101316.53;;;21.09;57.23
69535;BME280;56754;51.568;5.048;2023-07-22T01:41:11;101320.78;;;21.06;57.24
69535;BME280;56754;51.568;5.048;2023-07-22T01:43:36;101318.41;;;21.05;57.59
69535;BME280;56754;51.568;5.048;2023-07-22T01:46:01;101326.94;;;21.03;57.36
69535;BME280;56754;51.568;5.048;2023-07-22T01:48:27;101311.78;;;21.02;57.70
69535;BME280;56754;51.568;5.048;2023-07-22T01:50:52;101316.81;;;21.00;57.81
69535;BME280;56754;51.568;5.048;2023-07-22T01:53:17;101317.94;;;20.99;57.68
69535;BME280;56754;51.568;5.048;2023-07-22T01:55:43;101315.59;;;20.98;57.78
69535;BME280;56754;51.568;5.048;2023-07-22T01:58:08;101308.59;;;20.97;57.70
69535;BME280;56754;51.568;5.048;2023-07-22T02:00:33;101304.31;;;20.96;57.65
69535;BME280;56754;51.568;5.048;2023-07-22T02:02:58;101308.19;;;20.95;57.85
69535;BME280;56754;51.568;5.048;2023-07-22T02:05:24;101311.25;;;20.93;57.97
69535;BME280;56754;51.568;5.048;2023-07-22T02:07:51;101308.13;;;20.91;58.04
69535;BME280;56754;51.568;5.048;2023-07-22T02:10:16;101306.56;;;20.90;57.68
69535;BME280;56754;51.568;5.048;2023-07-22T02:12:41;101301.13;;;20.90;58.17
69535;BME280;56754;51.568;5.048;2023-07-22T02:15:07;101298.81;;;20.88;58.17
69535;BME280;56754;51.568;5.048;2023-07-22T02:17:32;101310.81;;;20.87;58.02
69535;BME280;56754;51.568;5.048;2023-07-22T02:19:58;101300.31;;;20.86;57.97
69535;BME280;56754;51.568;5.048;2023-07-22T02:22:23;101301.81;;;20.83;58.18
69535;BME280;56754;51.568;5.048;2023-07-22T02:24:48;101299.13;;;20.83;58.24
69535;BME280;56754;51.568;5.048;2023-07-22T02:27:14;101297.91;;;20.81;58.46
69535;BME280;56754;51.568;5.048;2023-07-22T02:29:39;101292.06;;;20.79;58.22
69535;BME280;56754;51.568;5.048;2023-07-22T02:32:05;101279.97;;;20.76;58.62
69535;BME280;56754;51.568;5.048;2023-07-22T02:34:30;101293.94;;;20.75;58.46
69535;BME280;56754;51.568;5.048;2023-07-22T02:36:55;101288.88;;;20.73;58.67
69535;BME280;56754;51.568;5.048;2023-07-22T02:39:21;101293.91;;;20.71;58.63
69535;BME280;56754;51.568;5.048;2023-07-22T02:41:47;101292.31;;;20.70;58.59
69535;BME280;56754;51.568;5.048;2023-07-22T02:44:12;101300.06;;;20.68;58.67
69535;BME280;56754;51.568;5.048;2023-07-22T02:46:37;101291.50;;;20.66;58.79
69535;BME280;56754;51.568;5.048;2023-07-22T02:49:03;101295.38;;;20.65;58.71
69535;BME280;56754;51.568;5.048;2023-07-22T02:51:28;101298.44;;;20.63;58.63
69535;BME280;56754;51.568;5.048;2023-07-22T02:53:53;101295.28;;;20.61;58.78
69535;BME280;56754;51.568;5.048;2023-07-22T02:56:19;101294.13;;;20.59;58.85
69535;BME280;56754;51.568;5.048;2023-07-22T02:58:44;101291.75;;;20.57;58.92
69535;BME280;56754;51.568;5.048;2023-07-22T03:01:09;101292.91;;;20.56;59.09
69535;BME280;56754;51.568;5.048;2023-07-22T03:03:35;101295.22;;;20.54;58.95
69535;BME280;56754;51.568;5.048;2023-07-22T03:06:01;101294.78;;;20.52;59.25
69535;BME280;56754;51.568;5.048;2023-07-22T03:08:27;101300.56;;;20.51;59.06
69535;BME280;56754;51.568;5.048;2023-07-22T03:10:52;101298.19;;;20.49;59.04
69535;BME280;56754;51.568;5.048;2023-07-22T03:13:17;101303.22;;;20.47;59.07
69535;BME280;56754;51.568;5.048;2023-07-22T03:15:43;101305.50;;;20.45;59.09
69535;BME280;56754;51.568;5.048;2023-07-22T03:18:08;101306.69;;;20.44;59.11
69535;BME280;56754;51.568;5.048;2023-07-22T03:20:34;101308.97;;;20.42;59.25
69535;BME280;56754;51.568;5.048;2023-07-22T03:22:59;101301.97;;;20.41;59.29
69535;BME280;56754;51.568;5.048;2023-07-22T03:25:24;101306.97;;;20.39;59.41
69535;BME280;56754;51.568;5.048;2023-07-22T03:27:50;101305.38;;;20.38;59.33
69535;BME280;56754;51.568;5.048;2023-07-22T03:30:16;101311.19;;;20.36;59.34
69535;BME280;56754;51.568;5.048;2023-07-22T03:32:43;101310.00;;;20.34;59.43
69535;BME280;56754;51.568;5.048;2023-07-22T03:35:09;101309.22;;;20.33;59.50
69535;BME280;56754;51.568;5.048;2023-07-22T03:37:34;101306.84;;;20.32;59.46
69535;BME280;56754;51.568;5.048;2023-07-22T03:39:59;101318.88;;;20.31;59.62
69535;BME280;56754;51.568;5.048;2023-07-22T03:42:25;101308.38;;;20.29;59.66
69535;BME280;56754;51.568;5.048;2023-07-22T03:44:50;101310.66;;;20.27;59.63
69535;BME280;56754;51.568;5.048;2023-07-22T03:47:15;101305.59;;;20.26;59.53
69535;BME280;56754;51.568;5.048;2023-07-22T03:49:41;101309.47;;;20.25;59.72
69535;BME280;56754;51.568;5.048;2023-07-22T03:52:07;101304.03;;;20.25;59.55
69535;BME280;56754;51.568;5.048;2023-07-22T03:54:32;101301.25;;;20.21;59.78
69535;BME280;56754;51.568;5.048;2023-07-22T03:56:57;101299.69;;;20.20;59.58
69535;BME280;56754;51.568;5.048;2023-07-22T03:59:22;101310.91;;;20.18;59.63
69535;BME280;56754;51.568;5.048;2023-07-22T04:01:48;101307.41;;;20.18;59.74
69535;BME280;56754;51.568;5.048;2023-07-22T04:04:13;101312.06;;;20.17;59.80
69535;BME280;56754;51.568;5.048;2023-07-22T04:06:38;101304.28;;;20.16;59.73
69535;BME280;56754;51.568;5.048;2023-07-22T04:09:04;101304.66;;;20.14;59.80
69535;BME280;56754;51.568;5.048;2023-07-22T04:11:29;101303.84;;;20.14;59.75
69535;BME280;56754;51.568;5.048;2023-07-22T04:13:54;101306.16;;;20.12;60.05
69535;BME280;56754;51.568;5.048;2023-07-22T04:16:19;101309.66;;;20.12;59.88
69535;BME280;56754;51.568;5.048;2023-07-22T04:18:45;101306.50;;;20.10;59.91
69535;BME280;56754;51.568;5.048;2023-07-22T04:21:10;101306.88;;;20.09;60.10
69535;BME280;56754;51.568;5.048;2023-07-22T04:23:35;101306.06;;;20.08;59.86
69535;BME280;56754;51.568;5.048;2023-07-22T04:26:02;101312.66;;;20.07;60.11
69535;BME280;56754;51.568;5.048;2023-07-22T04:28:27;101316.94;;;20.08;60.17
69535;BME280;56754;51.568;5.048;2023-07-22T04:30:58;101314.59;;;20.07;59.98
69535;BME280;56754;51.568;5.048;2023-07-22T04:33:26;101311.09;;;20.06;60.00
69535;BME280;56754;51.568;5.048;2023-07-22T04:35:59;101311.88;;;20.07;59.73
69535;BME280;56754;51.568;5.048;2023-07-22T04:38:25;101322.72;;;20.07;60.08
69535;BME280;56754;51.568;5.048;2023-07-22T04:40:50;101321.94;;;20.06;60.17
69535;BME280;56754;51.568;5.048;2023-07-22T04:43:16;101321.94;;;20.06;60.09
69535;BME280;56754;51.568;5.048;2023-07-22T04:45:41;101319.25;;;20.06;60.14
69535;BME280;56754;51.568;5.048;2023-07-22T04:48:06;101315.38;;;20.07;59.97
69535;BME280;56754;51.568;5.048;2023-07-22T04:50:32;101324.28;;;20.08;59.88
69535;BME280;56754;51.568;5.048;2023-07-22T04:52:57;101325.06;;;20.08;60.16
69535;BME280;56754;51.568;5.048;2023-07-22T04:55:23;101328.59;;;20.09;60.04
69535;BME280;56754;51.568;5.048;2023-07-22T04:57:48;101335.56;;;20.10;60.00
69535;BME280;56754;51.568;5.048;2023-07-22T05:00:14;101327.88;;;20.12;59.92
69535;BME280;56754;51.568;5.048;2023-07-22T05:02:39;101325.56;;;20.14;60.00
69535;BME280;56754;51.568;5.048;2023-07-22T05:05:05;101327.16;;;20.15;59.63
69535;BME280;56754;51.568;5.048;2023-07-22T05:07:30;101324.06;;;20.16;59.72
69535;BME280;56754;51.568;5.048;2023-07-22T05:09:56;101324.47;;;20.18;59.53
69535;BME280;56754;51.568;5.048;2023-07-22T05:12:21;101315.91;;;20.16;59.54
69535;BME280;56754;51.568;5.048;2023-07-22T05:14:46;101325.25;;;20.19;59.47
69535;BME280;56754;51.568;5.048;2023-07-22T05:17:11;101319.84;;;20.19;59.39
69535;BME280;56754;51.568;5.048;2023-07-22T05:19:37;101314.06;;;20.20;59.49
69535;BME280;56754;51.568;5.048;2023-07-22T05:22:03;101314.47;;;20.22;59.49
69535;BME280;56754;51.568;5.048;2023-07-22T05:24:29;101322.25;;;20.24;59.41
69535;BME280;56754;51.568;5.048;2023-07-22T05:26:54;101321.88;;;20.26;59.38
69535;BME280;56754;51.568;5.048;2023-07-22T05:29:19;101315.31;;;20.27;57.82
69535;BME280;56754;51.568;5.048;2023-07-22T05:31:45;101317.66;;;20.28;59.33
69535;BME280;56754;51.568;5.048;2023-07-22T05:34:10;101326.22;;;20.30;59.22
69535;BME280;56754;51.568;5.048;2023-07-22T05:36:36;101320.41;;;20.32;59.24
69535;BME280;56754;51.568;5.048;2023-07-22T05:39:01;101315.78;;;20.32;59.21
69535;BME280;56754;51.568;5.048;2023-07-22T05:41:26;101323.56;;;20.34;59.36
69535;BME280;56754;51.568;5.048;2023-07-22T05:43:52;101321.28;;;20.36;59.13
69535;BME280;56754;51.568;5.048;2023-07-22T05:46:17;101325.97;;;20.39;58.28
69535;BME280;56754;51.568;5.048;2023-07-22T05:48:42;101313.63;;;20.41;58.44
69535;BME280;56754;51.568;5.048;2023-07-22T05:51:08;101326.47;;;20.44;58.62
69535;BME280;56754;51.568;5.048;2023-07-22T05:53:33;101319.53;;;20.47;58.14
69535;BME280;56754;51.568;5.048;2023-07-22T05:55:58;101325.34;;;20.49;58.06
69535;BME280;56754;51.568;5.048;2023-07-22T05:58:24;101318.41;;;20.52;56.30
69535;BME280;56754;51.568;5.048;2023-07-22T06:00:49;101324.28;;;20.54;57.14
69535;BME280;56754;51.568;5.048;2023-07-22T06:03:14;101319.66;;;20.54;57.41
69535;BME280;56754;51.568;5.048;2023-07-22T06:05:40;101316.97;;;20.58;56.79
69535;BME280;56754;51.568;5.048;2023-07-22T06:08:05;101319.34;;;20.59;57.14
69535;BME280;56754;51.568;5.048;2023-07-22T06:10:31;101306.16;;;20.61;56.74
69535;BME280;56754;51.568;5.048;2023-07-22T06:12:56;101312.44;;;20.65;56.71
69535;BME280;56754;51.568;5.048;2023-07-22T06:15:22;101311.72;;;20.68;55.88
69535;BME280;56754;51.568;5.048;2023-07-22T06:17:47;101307.84;;;20.70;56.80
69535;BME280;56754;51.568;5.048;2023-07-22T06:20:12;101309.03;;;20.72;55.54
69535;BME280;56754;51.568;5.048;2023-07-22T06:22:38;101305.97;;;20.74;56.68
69535;BME280;56754;51.568;5.048;2023-07-22T06:25:04;101300.16;;;20.75;55.24
69535;BME280;56754;51.568;5.048;2023-07-22T06:27:29;101300.59;;;20.77;55.68
69535;BME280;56754;51.568;5.048;2023-07-22T06:29:55;101294.47;;;20.84;56.55
69535;BME280;56754;51.568;5.048;2023-07-22T06:32:20;101288.72;;;20.89;56.28
69535;BME280;56754;51.568;5.048;2023-07-22T06:34:45;101286.84;;;20.97;56.06
69535;BME280;56754;51.568;5.048;2023-07-22T06:37:10;101297.84;;;21.04;56.60
69535;BME280;56754;51.568;5.048;2023-07-22T06:39:36;101284.69;;;21.09;55.96
69535;BME280;56754;51.568;5.048;2023-07-22T06:42:01;101296.03;;;21.15;55.84
69535;BME280;56754;51.568;5.048;2023-07-22T06:44:26;101296.47;;;21.21;56.09
69535;BME280;56754;51.568;5.048;2023-07-22T06:46:52;101300.81;;;21.25;56.02
69535;BME280;56754;51.568;5.048;2023-07-22T06:49:17;101301.25;;;21.31;55.56
69535;BME280;56754;51.568;5.048;2023-07-22T06:51:42;101294.66;;;21.32;55.44
69535;BME280;56754;51.568;5.048;2023-07-22T06:54:07;101292.31;;;21.30;55.36
69535;BME280;56754;51.568;5.048;2023-07-22T06:56:33;101292.31;;;21.30;55.42
69535;BME280;56754;51.568;5.048;2023-07-22T06:58:58;101303.94;;;21.27;56.30
69535;BME280;56754;51.568;5.048;2023-07-22T07:01:23;101308.19;;;21.25;56.33
69535;BME280;56754;51.568;5.048;2023-07-22T07:03:48;101297.66;;;21.23;55.57
69535;BME280;56754;51.568;5.048;2023-07-22T07:06:14;101304.69;;;21.24;55.71
69535;BME280;56754;51.568;5.048;2023-07-22T07:08:39;101301.19;;;21.24;55.91
69535;BME280;56754;51.568;5.048;2023-07-22T07:11:04;101300.03;;;21.25;55.83
69535;BME280;56754;51.568;5.048;2023-07-22T07:13:29;101302.75;;;21.25;55.70
69535;BME280;56754;51.568;5.048;2023-07-22T07:15:55;101304.31;;;21.26;55.90
69535;BME280;56754;51.568;5.048;2023-07-22T07:18:20;101306.25;;;21.25;55.69
69535;BME280;56754;51.568;5.048;2023-07-22T07:20:46;101308.59;;;21.27;55.89
69535;BME280;56754;51.568;5.048;2023-07-22T07:23:13;101302.34;;;21.26;56.18
69535;BME280;56754;51.568;5.048;2023-07-22T07:25:38;101297.72;;;21.27;55.55
69535;BME280;56754;51.568;5.048;2023-07-22T07:28:04;101297.34;;;21.28;55.77
69535;BME280;56754;51.568;5.048;2023-07-22T07:30:29;101289.97;;;21.29;55.83
69535;BME280;56754;51.568;5.048;2023-07-22T07:32:55;101289.97;;;21.29;55.66
69535;BME280;56754;51.568;5.048;2023-07-22T07:35:20;101286.09;;;21.30;55.92
69535;BME280;56754;51.568;5.048;2023-07-22T07:37:45;101284.16;;;21.30;56.07
69535;BME280;56754;51.568;5.048;2023-07-22T07:40:11;101284.94;;;21.31;56.00
69535;BME280;56754;51.568;5.048;2023-07-22T07:42:37;101291.59;;;21.33;55.67
69535;BME280;56754;51.568;5.048;2023-07-22T07:45:02;101295.53;;;21.36;55.79
69535;BME280;56754;51.568;5.048;2023-07-22T07:47:28;101295.16;;;21.38;55.69
69535;BME280;56754;51.568;5.048;2023-07-22T07:49:53;101296.34;;;21.40;55.72
69535;BME280;56754;51.568;5.048;2023-07-22T07:52:18;101296.75;;;21.42;55.79
69535;BME280;56754;51.568;5.048;2023-07-22T07:54:44;101295.59;;;21.43;55.10
69535;BME280;56754;51.568;5.048;2023-07-22T07:57:09;101298.75;;;21.45;55.17
69535;BME280;56754;51.568;5.048;2023-07-22T07:59:34;101289.41;;;21.46;55.49
69535;BME280;56754;51.568;5.048;2023-07-22T08:01:59;101301.84;;;21.47;55.37
69535;BME280;56754;51.568;5.048;2023-07-22T08:04:25;101295.28;;;21.48;55.33
69535;BME280;56754;51.568;5.048;2023-07-22T08:06:50;101306.16;;;21.48;54.98
69535;BME280;56754;51.568;5.048;2023-07-22T08:09:15;101303.44;;;21.48;55.44
69535;BME280;56754;51.568;5.048;2023-07-22T08:11:40;101298.00;;;21.48;55.54
69535;BME280;56754;51.568;5.048;2023-07-22T08:14:06;101294.09;;;21.49;55.56
69535;BME280;56754;51.568;5.048;2023-07-22T08:16:31;101298.03;;;21.52;55.97
69535;BME280;56754;51.568;5.048;2023-07-22T08:18:56;101287.91;;;21.52;55.79
69535;BME280;56754;51.568;5.048;2023-07-22T08:21:22;101294.97;;;21.57;55.71
69535;BME280;56754;51.568;5.048;2023-07-22T08:23:47;101291.88;;;21.58;55.72
69535;BME280;56754;51.568;5.048;2023-07-22T08:26:12;101302.00;;;21.62;55.42
69535;BME280;56754;51.568;5.048;2023-07-22T08:28:38;101306.69;;;21.65;54.93
69535;BME280;56754;51.568;5.048;2023-07-22T08:31:03;101296.66;;;21.69;55.20
69535;BME280;56754;51.568;5.048;2023-07-22T08:33:29;101296.69;;;21.72;54.82
69535;BME280;56754;51.568;5.048;2023-07-22T08:35:55;101297.88;;;21.75;54.71
69535;BME280;56754;51.568;5.048;2023-07-22T08:38:20;101302.56;;;21.78;54.62
69535;BME280;56754;51.568;5.048;2023-07-22T08:40:48;101310.34;;;21.79;55.19
69535;BME280;56754;51.568;5.048;2023-07-22T08:43:15;101306.09;;;21.82;54.41
69535;BME280;56754;51.568;5.048;2023-07-22T08:45:40;101301.06;;;21.84;54.75
69535;BME280;56754;51.568;5.048;2023-07-22T08:48:08;101296.81;;;21.87;54.80
69535;BME280;56754;51.568;5.048;2023-07-22T08:50:40;101307.31;;;21.88;54.41
69535;BME280;56754;51.568;5.048;2023-07-22T08:53:06;101288.69;;;21.90;54.46
69535;BME280;56754;51.568;5.048;2023-07-22T08:55:32;101303.47;;;21.93;54.48
69535;BME280;56754;51.568;5.048;2023-07-22T08:57:58;101299.22;;;21.95;53.79
69535;BME280;56754;51.568;5.048;2023-07-22T09:00:24;101298.06;;;21.96;54.10
69535;BME280;56754;51.568;5.048;2023-07-22T09:02:50;101296.91;;;21.97;54.39
69535;BME280;56754;51.568;5.048;2023-07-22T09:05:16;101294.59;;;21.99;54.13
69535;BME280;56754;51.568;5.048;2023-07-22T09:07:42;101283.34;;;22.01;53.87
69535;BME280;56754;51.568;5.048;2023-07-22T09:10:08;101288.41;;;22.02;54.03
69535;BME280;56754;51.568;5.048;2023-07-22T09:12:34;101284.50;;;22.03;53.98
69535;BME280;56754;51.568;5.048;2023-07-22T09:15:00;101281.41;;;22.05;53.70
69535;BME280;56754;51.568;5.048;2023-07-22T09:17:27;101276.75;;;22.06;54.03
69535;BME280;56754;51.568;5.048;2023-07-22T09:19:53;101284.56;;;22.07;53.15
69535;BME280;56754;51.568;5.048;2023-07-22T09:22:18;101285.75;;;22.10;54.01
69535;BME280;56754;51.568;5.048;2023-07-22T09:24:43;101283.41;;;22.12;53.45
69535;BME280;56754;51.568;5.048;2023-07-22T09:27:08;101277.22;;;22.15;53.48
69535;BME280;56754;51.568;5.048;2023-07-22T09:29:35;101282.66;;;22.15;52.48
69535;BME280;56754;51.568;5.048;2023-07-22T09:32:01;101285.47;;;22.18;53.00
69535;BME280;56754;51.568;5.048;2023-07-22T09:34:27;101287.00;;;22.19;53.62
69535;BME280;56754;51.568;5.048;2023-07-22T09:36:53;101282.75;;;22.22;52.92
69535;BME280;56754;51.568;5.048;2023-07-22T09:39:19;101285.09;;;22.23;53.07
69535;BME280;56754;51.568;5.048;2023-07-22T09:41:46;101286.28;;;22.26;53.03
69535;BME280;56754;51.568;5.048;2023-07-22T09:44:11;101282.03;;;22.29;52.74
69535;BME280;56754;51.568;5.048;2023-07-22T09:46:36;101293.34;;;22.31;53.00
69535;BME280;56754;51.568;5.048;2023-07-22T09:49:07;101277.00;;;22.31;52.22
69535;BME280;56754;51.568;5.048;2023-07-22T09:51:36;101268.44;;;22.32;53.18
69535;BME280;56754;51.568;5.048;2023-07-22T09:54:03;101273.13;;;22.35;52.93
69535;BME280;56754;51.568;5.048;2023-07-22T09:56:29;101277.81;;;22.38;52.49
69535;BME280;56754;51.568;5.048;2023-07-22T09:58:55;101280.16;;;22.40;52.40
69535;BME280;56754;51.568;5.048;2023-07-22T10:01:23;101275.91;;;22.42;52.49
69535;BME280;56754;51.568;5.048;2023-07-22T10:03:55;101283.31;;;22.45;52.04
69535;BME280;56754;51.568;5.048;2023-07-22T10:06:26;101285.66;;;22.47;52.55
69535;BME280;56754;51.568;5.048;2023-07-22T10:08:52;101288.00;;;22.48;52.31
69535;BME280;56754;51.568;5.048;2023-07-22T10:11:18;101274.75;;;22.51;52.48
69535;BME280;56754;51.568;5.048;2023-07-22T10:13:43;101279.44;;;22.54;52.68
69535;BME280;56754;51.568;5.048;2023-07-22T10:16:10;101284.53;;;22.55;52.43
69535;BME280;56754;51.568;5.048;2023-07-22T10:18:35;101283.78;;;22.58;52.56
69535;BME280;56754;51.568;5.048;2023-07-22T10:21:01;101287.69;;;22.61;52.37
69535;BME280;56754;51.568;5.048;2023-07-22T10:23:27;101290.81;;;22.63;51.97
69535;BME280;56754;51.568;5.048;2023-07-22T10:25:53;101268.63;;;22.64;51.97
69535;BME280;56754;51.568;5.048;2023-07-22T10:28:20;101277.59;;;22.68;52.36
69535;BME280;56754;51.568;5.048;2023-07-22T10:30:46;101264.38;;;22.70;52.28
69535;BME280;56754;51.568;5.048;2023-07-22T10:33:12;101281.13;;;22.73;51.93
69535;BME280;56754;51.568;5.048;2023-07-22T10:35:41;101271.44;;;22.75;51.87
69535;BME280;56754;51.568;5.048;2023-07-22T10:38:12;101275.69;;;22.76;51.44
69535;BME280;56754;51.568;5.048;2023-07-22T10:40:50;101273.38;;;22.78;52.07
69535;BME280;56754;51.568;5.048;2023-07-22T10:43:17;101278.44;;;22.80;52.19
69535;BME280;56754;51.568;5.048;2023-07-22T10:45:49;101274.94;;;22.83;51.91
69535;BME280;56754;51.568;5.048;2023-07-22T10:48:15;101273.41;;;22.85;51.98
69535;BME280;56754;51.568;5.048;2023-07-22T10:53:43;101269.53;;;22.90;51.11
69535;BME280;56754;51.568;5.048;2023-07-22T11:06:39;101260.28;;;23.02;51.28
69535;BME280;56754;51.568;5.048;2023-07-22T11:09:05;101258.69;;;23.01;51.13
69535;BME280;56754;51.568;5.048;2023-07-22T11:11:39;101261.84;;;23.03;51.00
69535;BME280;56754;51.568;5.048;2023-07-22T11:14:20;101248.19;;;23.03;51.17
69535;BME280;56754;51.568;5.048;2023-07-22T11:16:47;101252.09;;;23.02;51.03
69535;BME280;56754;51.568;5.048;2023-07-22T11:19:31;101246.66;;;23.02;50.96
69535;BME280;56754;51.568;5.048;2023-07-22T11:21:57;101259.09;;;23.03;51.19
69535;BME280;56754;51.568;5.048;2023-07-22T11:24:23;101253.25;;;23.01;51.22
69535;BME280;56754;51.568;5.048;2023-07-22T11:26:50;101254.06;;;23.01;50.97
69535;BME280;56754;51.568;5.048;2023-07-22T11:29:16;101240.03;;;23.03;51.03
69535;BME280;56754;51.568;5.048;2023-07-22T11:31:43;101246.25;;;23.03;50.82
69535;BME280;56754;51.568;5.048;2023-07-22T11:34:09;101246.25;;;23.03;50.78
69535;BME280;56754;51.568;5.048;2023-07-22T11:36:35;101245.09;;;23.04;50.92
69535;BME280;56754;51.568;5.048;2023-07-22T11:39:06;101248.97;;;23.07;50.96
69535;BME280;56754;51.568;5.048;2023-07-22T11:41:32;101235.75;;;23.09;50.51
69535;BME280;56754;51.568;5.048;2023-07-22T11:43:58;101229.94;;;23.10;49.98
69535;BME280;56754;51.568;5.048;2023-07-22T11:46:24;101238.88;;;23.11;50.70
69535;BME280;56754;51.568;5.048;2023-07-22T11:48:51;101242.00;;;23.13;50.52
69535;BME280;56754;51.568;5.048;2023-07-22T11:51:19;101240.84;;;23.14;50.18
69535;BME280;56754;51.568;5.048;2023-07-22T11:53:48;101233.81;;;23.13;50.12
69535;BME280;56754;51.568;5.048;2023-07-22T11:56:21;101233.81;;;23.13;49.87
69535;BME280;56754;51.568;5.048;2023-07-22T11:58:55;101228.75;;;23.11;49.87
69535;BME280;56754;51.568;5.048;2023-07-22T12:01:20;101215.13;;;23.11;49.59
69535;BME280;56754;51.568;5.048;2023-07-22T12:03:46;101211.63;;;23.11;49.62
69535;BME280;56754;51.568;5.048;2023-07-22T12:06:13;101215.13;;;23.11;49.41
69535;BME280;56754;51.568;5.048;2023-07-22T12:08:46;101215.91;;;23.12;48.98
69535;BME280;56754;51.568;5.048;2023-07-22T12:11:19;101220.19;;;23.13;49.13
69535;BME280;56754;51.568;5.048;2023-07-22T12:13:45;101209.66;;;23.15;49.00
69535;BME280;56754;51.568;5.048;2023-07-22T12:16:11;101213.56;;;23.14;49.02
69535;BME280;56754;51.568;5.048;2023-07-22T12:18:43;101207.34;;;23.13;49.01
69535;BME280;56754;51.568;5.048;2023-07-22T12:21:09;101215.53;;;23.13;48.86
69535;BME280;56754;51.568;5.048;2023-07-22T12:23:36;101210.84;;;23.14;48.78
69535;BME280;56754;51.568;5.048;2023-07-22T12:26:01;101213.56;;;23.14;48.53
69535;BME280;56754;51.568;5.048;2023-07-22T12:28:26;101220.59;;;23.15;48.68
69535;BME280;56754;51.568;5.048;2023-07-22T12:30:52;101221.34;;;23.15;48.46
69535;BME280;56754;51.568;5.048;2023-07-22T12:33:17;101207.72;;;23.15;48.40
69535;BME280;56754;51.568;5.048;2023-07-22T12:35:42;101201.91;;;23.13;48.48
69535;BME280;56754;51.568;5.048;2023-07-22T12:38:07;101209.66;;;23.15;48.59
69535;BME280;56754;51.568;5.048;2023-07-22T12:40:34;101205.41;;;23.14;48.78
69535;BME280;56754;51.568;5.048;2023-07-22T12:42:59;101211.22;;;23.12;48.28
69535;BME280;56754;51.568;5.048;2023-07-22T12:45:26;101209.66;;;23.11;48.29
69535;BME280;56754;51.568;5.048;2023-07-22T12:47:51;101211.22;;;23.09;48.40
69535;BME280;56754;51.568;5.048;2023-07-22T12:50:16;101212.00;;;23.09;48.17
69535;BME280;56754;51.568;5.048;2023-07-22T12:52:45;101218.22;;;23.10;48.20
69535;BME280;56754;51.568;5.048;2023-07-22T12:55:11;101219.41;;;23.09;47.97
69535;BME280;56754;51.568;5.048;2023-07-22T12:57:36;101208.88;;;23.07;47.88